Time;durP1;ratioP1;P1;durP2;ratioP2;P2;SDS_P1;SDS_P2;PMS_P1;PMS_P2;Temp;Humidity;BMP_temperature;BMP_pressure;BME280_temperature;BME280_humidity;BME280_pressure;Samples;Min_cycle;Max_cycle;Signal;HPM_P1;HPM_P2
2024/04/14 00:00:49;;;;;;;3.55;1.60;;;;;;;14.97;58.09;100288.16;11295611;26;20013;-61
2024/04/14 00:05:53;;;;;;;3.42;1.30;;;;;;;14.96;58.29;100282.03;11324234;26;20954;-62
2024/04/14 00:10:57;;;;;;;2.63;1.48;;;;;;;14.95;58.40;100279.53;11326547;26;20009;-62
2024/04/14 00:16:01;;;;;;;3.35;1.40;;;;;;;14.88;58.08;100273.03;11326697;26;20030;-61
2024/04/14 00:21:04;;;;;;;4.28;2.35;;;;;;;14.81;58.26;100269.16;11325788;26;19998;-61
2024/04/14 00:26:08;;;;;;;3.97;1.50;;;;;;;14.71;58.59;100268.13;11292731;26;20359;-61
2024/04/14 00:31:11;;;;;;;2.67;1.35;;;;;;;14.63;58.80;100265.19;11326954;26;20334;-61
2024/04/14 00:36:13;;;;;;;2.20;1.30;;;;;;;14.58;58.77;100260.25;11325229;26;20006;-62
2024/04/14 00:41:16;;;;;;;3.55;1.77;;;;;;;14.60;59.18;100253.09;11324856;26;19998;-61
2024/04/14 00:46:19;;;;;;;4.60;2.25;;;;;;;14.63;59.07;100252.88;11322337;26;20012;-61
2024/04/14 00:51:21;;;;;;;1.85;1.23;;;;;;;14.55;59.02;100255.22;11322652;26;20454;-62
2024/04/14 00:56:24;;;;;;;3.08;1.40;;;;;;;14.67;58.86;100256.13;11322563;26;20098;-61
2024/04/14 01:01:27;;;;;;;2.80;1.33;;;;;;;14.79;58.81;100257.88;11324609;26;20013;-62
2024/04/14 01:06:30;;;;;;;3.35;1.30;;;;;;;14.84;58.63;100258.41;11320919;26;20002;-61
2024/04/14 01:11:32;;;;;;;2.85;1.60;;;;;;;14.72;58.89;100254.00;11324210;26;20006;-61
2024/04/14 01:16:39;;;;;;;4.78;1.40;;;;;;;14.66;58.54;100259.69;11322536;26;20532;-62
2024/04/14 01:21:42;;;;;;;3.45;1.45;;;;;;;14.59;58.97;100252.25;11323012;26;20103;-61
2024/04/14 01:26:44;;;;;;;2.97;1.40;;;;;;;14.56;58.96;100262.16;11320698;26;20012;-61
2024/04/14 01:31:47;;;;;;;2.60;1.55;;;;;;;14.55;59.10;100255.22;11323770;26;20261;-62
2024/04/14 01:36:50;;;;;;;2.47;1.48;;;;;;;14.50;59.28;100258.19;11323743;26;20006;-61
2024/04/14 01:41:52;;;;;;;2.85;1.60;;;;;;;14.61;59.52;100264.47;11327635;26;20013;-61
2024/04/14 01:46:55;;;;;;;2.78;1.30;;;;;;;14.69;59.44;100262.97;11328922;26;20009;-62
2024/04/14 01:51:57;;;;;;;4.38;1.30;;;;;;;14.65;59.28;100261.53;11330550;26;19998;-62
2024/04/14 01:57:00;;;;;;;3.70;1.35;;;;;;;14.69;59.21;100264.75;11329715;26;20083;-61
2024/04/14 02:02:02;;;;;;;3.25;1.52;;;;;;;14.79;59.06;100263.16;11328765;26;20013;-62
2024/04/14 02:07:05;;;;;;;7.20;1.55;;;;;;;14.88;59.08;100265.13;11330555;26;20002;-61
2024/04/14 02:12:08;;;;;;;2.97;1.30;;;;;;;14.92;59.35;100263.97;11329510;26;19997;-61
2024/04/14 02:17:10;;;;;;;3.22;1.52;;;;;;;14.66;59.25;100265.81;11326931;26;20454;-61
2024/04/14 02:22:13;;;;;;;2.08;1.30;;;;;;;14.76;59.49;100268.66;11329921;26;20531;-62
2024/04/14 02:27:15;;;;;;;2.85;1.48;;;;;;;14.94;59.40;100276.03;11327061;26;20522;-62
2024/04/14 02:32:18;;;;;;;6.63;2.15;;;;;;;15.09;59.14;100277.59;11327200;26;20016;-62
2024/04/14 02:37:21;;;;;;;3.63;1.77;;;;;;;15.15;59.21;100276.28;11296475;26;20013;-61
2024/04/14 02:42:24;;;;;;;4.50;1.58;;;;;;;15.22;58.67;100283.66;11326766;26;19998;-62
2024/04/14 02:47:26;;;;;;;4.82;1.73;;;;;;;15.24;58.64;100288.81;11297752;26;20258;-61
2024/04/14 02:52:29;;;;;;;2.30;1.38;;;;;;;15.26;58.48;100294.78;11323105;26;19994;-61
2024/04/14 02:57:31;;;;;;;2.47;1.45;;;;;;;15.38;58.32;100301.81;11328674;26;20006;-62
2024/04/14 03:02:34;;;;;;;3.58;1.35;;;;;;;15.45;58.33;100297.75;11329271;26;20002;-61
2024/04/14 03:07:36;;;;;;;1.92;1.17;;;;;;;15.56;57.68;100287.28;11328718;26;20361;-62
2024/04/14 03:12:40;;;;;;;3.40;1.92;;;;;;;15.61;56.92;100295.72;11328842;26;20006;-62
2024/04/14 03:17:42;;;;;;;2.05;1.10;;;;;;;15.61;56.18;100302.78;11327234;26;20350;-62
2024/04/14 03:22:45;;;;;;;1.83;1.10;;;;;;;15.55;55.69;100309.31;11326405;26;21867;-62
2024/04/14 03:27:47;;;;;;;6.05;1.58;;;;;;;15.52;54.25;100308.72;11327248;26;20488;-62
2024/04/14 03:32:50;;;;;;;2.38;1.20;;;;;;;15.46;53.19;100319.69;11326628;26;20017;-62
2024/04/14 03:37:53;;;;;;;3.50;1.10;;;;;;;15.34;52.38;100314.38;11326821;26;20006;-62
2024/04/14 03:42:56;;;;;;;2.13;1.33;;;;;;;15.30;51.75;100312.06;11327910;26;20006;-62
2024/04/14 03:47:59;;;;;;;2.80;1.02;;;;;;;15.26;51.54;100321.16;11323734;26;20020;-62
2024/04/14 03:53:01;;;;;;;1.65;1.00;;;;;;;15.18;51.03;100324.34;11326920;26;20457;-62
2024/04/14 03:58:05;;;;;;;4.50;0.90;;;;;;;15.08;50.13;100333.03;11326666;26;20070;-62
2024/04/14 04:03:09;;;;;;;1.77;1.00;;;;;;;14.98;49.52;100324.91;11326363;26;20014;-62
2024/04/14 04:08:11;;;;;;;2.28;0.95;;;;;;;14.97;49.51;100327.66;11327967;26;20006;-62
2024/04/14 04:13:16;;;;;;;3.05;1.20;;;;;;;14.85;47.79;100326.75;11324917;26;20042;-62
2024/04/14 04:18:20;;;;;;;1.52;0.90;;;;;;;14.81;48.65;100334.97;11323686;26;20014;-61
2024/04/14 04:23:23;;;;;;;0.85;0.80;;;;;;;14.73;48.44;100337.31;11327328;26;20945;-62
2024/04/14 04:28:30;;;;;;;2.50;0.90;;;;;;;14.67;48.38;100341.22;11326950;26;20013;-62
2024/04/14 04:33:34;;;;;;;2.83;1.05;;;;;;;14.65;48.58;100352.81;11326700;26;20330;-61
2024/04/14 04:38:36;;;;;;;1.20;0.98;;;;;;;14.59;49.06;100356.72;11326093;26;20020;-61
2024/04/14 04:43:39;;;;;;;3.35;1.20;;;;;;;14.50;48.80;100347.66;11325757;26;20105;-62
2024/04/14 04:48:43;;;;;;;2.03;1.20;;;;;;;14.51;48.72;100351.97;11312036;26;20215;-62
2024/04/14 04:53:46;;;;;;;1.98;1.10;;;;;;;14.48;48.64;100349.53;11324993;26;20001;-62
2024/04/14 04:58:48;;;;;;;3.13;1.15;;;;;;;14.51;48.90;100356.41;11325997;26;19998;-61
2024/04/14 05:03:51;;;;;;;1.67;1.02;;;;;;;14.61;48.77;100349.56;11322785;26;20377;-61
2024/04/14 05:08:54;;;;;;;0.88;0.80;;;;;;;14.72;48.56;100361.94;11323153;26;19999;-62
2024/04/14 05:13:56;;;;;;;1.90;1.10;;;;;;;14.85;48.54;100370.69;11323756;26;20018;-62
2024/04/14 05:18:59;;;;;;;1.63;1.05;;;;;;;14.88;48.61;100367.84;11321933;26;20017;-62
2024/04/14 05:24:02;;;;;;;1.45;0.90;;;;;;;14.96;49.04;100371.59;11324409;26;20002;-61
2024/04/14 05:29:05;;;;;;;1.40;0.98;;;;;;;15.08;48.92;100380.44;11325074;26;20466;-62
2024/04/14 05:34:08;;;;;;;3.67;1.60;;;;;;;15.26;49.06;100372.06;11322040;26;20478;-62
2024/04/14 05:39:10;;;;;;;2.13;1.13;;;;;;;15.47;48.64;100377.56;11322882;26;19998;-62
2024/04/14 05:44:13;;;;;;;2.65;1.30;;;;;;;15.62;48.73;100384.38;11324265;26;20012;-62
2024/04/14 05:49:16;;;;;;;2.00;1.10;;;;;;;15.78;48.36;100373.53;11321303;26;19999;-62
2024/04/14 05:54:21;;;;;;;1.50;1.20;;;;;;;15.83;48.32;100376.69;11322810;26;20335;-62
2024/04/14 05:59:23;;;;;;;1.80;1.42;;;;;;;15.79;48.78;100378.72;11322940;26;20016;-62
2024/04/14 06:04:26;;;;;;;1.23;1.10;;;;;;;15.84;48.49;100386.25;11321221;26;20074;-62
2024/04/14 06:09:29;;;;;;;2.35;1.08;;;;;;;15.90;47.65;100391.09;11323062;26;20006;-62
2024/04/14 06:14:31;;;;;;;1.48;0.90;;;;;;;15.99;47.25;100401.81;11322223;26;20588;-61
2024/04/14 06:19:34;;;;;;;2.47;1.40;;;;;;;16.20;46.74;100415.19;11323170;26;19998;-61
2024/04/14 06:24:37;;;;;;;1.55;1.00;;;;;;;16.29;46.33;100411.00;11291108;26;20016;-62
2024/04/14 06:29:39;;;;;;;1.35;1.00;;;;;;;16.35;45.93;100415.81;11298638;26;20548;-62
2024/04/14 06:34:42;;;;;;;1.70;0.93;;;;;;;16.52;45.68;100415.41;11328376;26;20099;-62
2024/04/14 06:39:44;;;;;;;1.17;1.00;;;;;;;16.82;45.37;100434.19;11329298;26;20002;-62
2024/04/14 06:44:47;;;;;;;2.22;1.10;;;;;;;16.82;44.48;100437.66;11328739;26;20914;-62
2024/04/14 06:49:50;;;;;;;2.92;1.35;;;;;;;16.93;44.00;100435.03;11328399;26;20006;-62
2024/04/14 06:54:52;;;;;;;2.13;1.20;;;;;;;17.12;43.86;100446.81;11325520;26;20024;-62
2024/04/14 06:59:55;;;;;;;1.83;1.10;;;;;;;17.10;43.65;100441.63;11327852;26;19998;-62
2024/04/14 07:04:57;;;;;;;2.67;1.20;;;;;;;17.25;43.23;100435.13;11328490;26;21861;-62
2024/04/14 07:10:00;;;;;;;1.20;1.00;;;;;;;17.31;43.00;100442.59;11327972;26;20046;-62
2024/04/14 07:15:03;;;;;;;2.83;1.58;;;;;;;17.43;42.79;100443.44;11329186;26;20511;-62
2024/04/14 07:20:06;;;;;;;3.88;1.40;;;;;;;17.61;42.58;100453.38;11327481;26;20215;-62
2024/04/14 07:25:10;;;;;;;3.58;1.10;;;;;;;17.87;42.22;100439.84;11329334;26;20500;-62
2024/04/14 07:30:13;;;;;;;2.40;1.00;;;;;;;17.73;41.85;100444.44;11327716;26;20014;-62
2024/04/14 07:35:16;;;;;;;3.83;1.20;;;;;;;17.84;42.43;100448.88;11323496;26;20008;-62
2024/04/14 07:40:18;;;;;;;2.35;1.10;;;;;;;18.02;41.88;100451.81;11322162;26;20290;-62
2024/04/14 07:45:21;;;;;;;1.83;1.10;;;;;;;18.61;41.18;100443.22;11325107;26;20064;-62
2024/04/14 07:50:24;;;;;;;1.98;1.17;;;;;;;18.95;40.76;100453.59;11323575;26;20020;-62
2024/04/14 07:55:26;;;;;;;2.72;1.40;;;;;;;19.28;40.30;100432.97;11321415;26;20487;-62
2024/04/14 08:00:29;;;;;;;2.53;1.20;;;;;;;19.78;39.59;100446.22;11323215;26;19998;-62
2024/04/14 08:05:32;;;;;;;5.43;1.70;;;;;;;20.13;38.92;100433.28;11322205;26;20070;-62
2024/04/14 08:10:37;;;;;;;2.47;1.33;;;;;;;20.29;38.34;100438.88;11324906;26;20347;-62
2024/04/14 08:15:41;;;;;;;1.75;1.13;;;;;;;20.74;37.88;100442.56;11322083;26;19994;-62
2024/04/14 08:20:44;;;;;;;2.45;1.17;;;;;;;20.96;37.76;100441.41;11323811;26;20006;-62
2024/04/14 08:25:47;;;;;;;1.05;0.80;;;;;;;20.86;37.91;100440.59;11321894;26;20006;-62
2024/04/14 08:30:50;;;;;;;3.92;1.10;;;;;;;20.85;37.75;100434.44;11321977;26;19998;-62
2024/04/14 08:35:52;;;;;;;2.15;1.05;;;;;;;21.01;36.97;100434.66;11320632;26;20784;-62
2024/04/14 08:40:55;;;;;;;3.33;1.40;;;;;;;20.77;37.40;100436.97;11324225;26;20033;-62
2024/04/14 08:46:00;;;;;;;4.28;1.10;;;;;;;20.85;37.44;100439.75;11322528;26;20735;-62
2024/04/14 08:51:04;;;;;;;1.75;1.10;;;;;;;20.88;37.42;100438.63;11322328;26;20027;-62
2024/04/14 08:56:07;;;;;;;3.33;1.23;;;;;;;21.42;36.73;100428.03;11323079;26;20459;-63
2024/04/14 09:01:10;;;;;;;4.68;1.50;;;;;;;21.41;36.66;100428.19;11322011;26;20840;-62
2024/04/14 09:06:13;;;;;;;4.10;1.45;;;;;;;21.34;36.74;100413.81;11320259;26;20002;-62
2024/04/14 09:11:16;;;;;;;4.30;1.35;;;;;;;21.66;36.34;100419.50;11286460;26;19998;-62
2024/04/14 09:16:19;;;;;;;3.28;1.10;;;;;;;21.37;35.78;100416.19;11324710;26;20018;-62
2024/04/14 09:21:22;;;;;;;1.83;0.93;;;;;;;21.52;36.08;100417.31;11324969;26;20212;-62
2024/04/14 09:26:30;;;;;;;2.15;0.85;;;;;;;21.61;35.52;100432.41;11321854;26;20017;-62
2024/04/14 09:31:34;;;;;;;2.53;1.13;;;;;;;21.48;35.96;100431.91;11324825;26;20002;-62
2024/04/14 09:36:38;;;;;;;3.22;1.00;;;;;;;21.11;36.15;100434.59;11323638;26;20003;-62
2024/04/14 09:41:42;;;;;;;2.80;0.85;;;;;;;21.23;36.42;100444.09;11321791;26;19998;-62
2024/04/14 09:46:45;;;;;;;1.65;1.00;;;;;;;21.53;35.05;100435.00;11321850;26;20454;-62
2024/04/14 09:51:51;;;;;;;3.45;1.50;;;;;;;21.56;35.33;100440.00;11316619;26;20003;-63
2024/04/14 09:56:54;;;;;;;2.85;1.20;;;;;;;21.50;36.00;100436.13;11313602;26;20054;-63
2024/04/14 10:01:58;;;;;;;3.85;1.30;;;;;;;21.69;35.60;100443.16;11283203;26;20010;-64
2024/04/14 10:07:02;;;;;;;2.65;1.38;;;;;;;21.17;35.39;100439.34;11320383;26;20030;-63
2024/04/14 10:12:05;;;;;;;2.80;1.42;;;;;;;20.80;36.67;100444.69;11319603;26;20002;-63
2024/04/14 10:17:14;;;;;;;2.92;1.42;;;;;;;21.27;35.70;100439.31;11322315;26;19998;-63
2024/04/14 10:22:21;;;;;;;2.55;1.30;;;;;;;21.34;36.43;100441.25;11323560;26;20013;-64
2024/04/14 10:27:24;;;;;;;3.95;1.60;;;;;;;21.49;36.32;100438.94;11321261;26;20006;-63
2024/04/14 10:32:27;;;;;;;3.90;1.58;;;;;;;21.83;36.14;100434.63;11316733;26;20568;-63
2024/04/14 10:37:30;;;;;;;2.80;1.30;;;;;;;21.78;36.01;100419.09;11326762;26;20002;-63
2024/04/14 10:42:36;;;;;;;2.33;1.20;;;;;;;21.60;35.05;100418.25;11326410;26;20398;-63
2024/04/14 10:47:41;;;;;;;2.65;1.30;;;;;;;21.49;35.72;100413.16;11321811;26;20054;-63
2024/04/14 10:52:51;;;;;;;3.47;1.63;;;;;;;21.25;35.57;100414.69;11319215;26;20006;-63
2024/04/14 10:57:53;;;;;;;4.05;1.33;;;;;;;21.27;35.76;100404.72;11320066;26;20331;-63
2024/04/14 11:02:58;;;;;;;2.25;1.20;;;;;;;21.33;35.71;100412.16;11325773;26;20005;-61
2024/04/14 11:08:01;;;;;;;2.50;1.38;;;;;;;21.13;35.90;100413.19;11320498;26;20002;-62
2024/04/14 11:13:05;;;;;;;2.63;1.45;;;;;;;21.25;35.54;100396.06;11351683;26;19998;-62
2024/04/14 11:18:08;;;;;;;4.30;1.23;;;;;;;21.32;35.44;100394.50;11323592;26;20353;-63
2024/04/14 11:23:11;;;;;;;5.18;1.95;;;;;;;21.43;35.58;100388.97;11324237;26;20346;-62
2024/04/14 11:28:15;;;;;;;3.13;1.67;;;;;;;21.49;35.55;100383.91;11321953;26;20013;-62
2024/04/14 11:33:22;;;;;;;4.43;1.60;;;;;;;21.40;35.70;100381.28;11324535;26;20013;-62
2024/04/14 11:38:26;;;;;;;1.90;1.20;;;;;;;21.40;35.86;100387.44;11322099;26;20020;-62
2024/04/14 11:43:30;;;;;;;3.17;1.20;;;;;;;21.30;35.85;100378.66;11320253;26;19998;-62
2024/04/14 11:48:32;;;;;;;3.60;1.10;;;;;;;21.50;35.32;100376.72;11316004;26;20002;-62
2024/04/14 11:53:36;;;;;;;2.63;1.20;;;;;;;21.74;35.48;100363.69;11321946;26;20008;-62
2024/04/14 11:58:38;;;;;;;3.00;1.40;;;;;;;22.02;34.92;100357.25;11321030;26;19994;-62
2024/04/14 12:03:41;;;;;;;2.92;1.30;;;;;;;21.63;33.98;100350.59;11321015;26;20356;-62
2024/04/14 12:08:44;;;;;;;1.52;0.90;;;;;;;21.78;34.50;100351.72;11318102;26;20101;-62
2024/04/14 12:13:47;;;;;;;4.25;1.60;;;;;;;21.78;34.33;100343.75;11320511;26;20490;-62
2024/04/14 12:18:49;;;;;;;2.40;0.88;;;;;;;21.87;34.18;100348.13;11318703;26;20010;-62
2024/04/14 12:23:53;;;;;;;4.90;1.20;;;;;;;22.05;34.13;100330.34;11320522;26;20432;-62
2024/04/14 12:28:56;;;;;;;1.77;1.25;;;;;;;22.23;33.68;100319.66;11323420;26;19998;-62
2024/04/14 12:33:58;;;;;;;3.97;1.30;;;;;;;22.29;33.62;100322.50;11320776;26;20017;-62
2024/04/14 12:39:01;;;;;;;1.20;0.90;;;;;;;22.54;33.67;100310.16;11289409;26;20029;-62
2024/04/14 12:44:04;;;;;;;2.88;1.35;;;;;;;22.35;33.15;100316.53;11322818;26;20002;-62
2024/04/14 12:49:06;;;;;;;2.70;1.20;;;;;;;22.46;33.67;100308.28;11322747;26;20002;-62
2024/04/14 12:54:09;;;;;;;4.40;1.70;;;;;;;22.53;33.45;100308.50;11317245;26;20346;-61
2024/04/14 12:59:12;;;;;;;3.40;1.40;;;;;;;22.39;33.87;100298.44;11321402;26;20466;-61
2024/04/14 13:04:15;;;;;;;4.40;1.40;;;;;;;22.33;34.09;100291.06;11319604;26;19994;-61
2024/04/14 13:09:18;;;;;;;2.28;1.20;;;;;;;22.50;34.50;100283.00;11320652;26;20347;-62
2024/04/14 13:14:20;;;;;;;4.63;1.73;;;;;;;22.53;34.29;100279.19;11322439;26;20008;-62
2024/04/14 13:19:23;;;;;;;3.25;1.55;;;;;;;22.44;34.21;100261.47;11317247;26;20021;-61
2024/04/14 13:24:25;;;;;;;3.75;1.50;;;;;;;22.19;34.54;100263.16;11321533;26;20002;-61
2024/04/14 13:29:29;;;;;;;6.15;1.70;;;;;;;22.15;34.61;100253.81;11320083;26;20477;-61
2024/04/14 13:34:34;;;;;;;6.28;2.22;;;;;;;22.43;34.26;100262.47;11321266;26;20002;-63
2024/04/14 13:39:36;;;;;;;3.42;1.63;;;;;;;22.30;34.17;100254.06;11322380;26;19998;-62
2024/04/14 13:44:39;;;;;;;3.17;1.52;;;;;;;22.33;34.13;100243.91;11326793;26;20045;-62
2024/04/14 13:49:42;;;;;;;5.03;1.70;;;;;;;22.19;34.33;100241.84;11296857;26;20002;-62
2024/04/14 13:54:45;;;;;;;4.32;1.90;;;;;;;22.11;34.51;100238.31;11325703;26;20009;-62
2024/04/14 13:59:50;;;;;;;3.10;1.58;;;;;;;22.00;34.60;100239.38;11324025;26;20035;-62
2024/04/14 14:04:53;;;;;;;2.85;1.55;;;;;;;21.91;34.69;100232.31;11325459;26;20006;-62
2024/04/14 14:09:57;;;;;;;5.18;1.60;;;;;;;22.15;34.53;100224.50;11323561;26;20060;-63
2024/04/14 14:14:59;;;;;;;3.67;2.00;;;;;;;21.69;34.69;100214.22;11324073;26;20013;-62
2024/04/14 14:20:02;;;;;;;7.88;2.22;;;;;;;21.67;34.83;100213.53;11294811;26;20020;-62
2024/04/14 14:25:05;;;;;;;3.60;1.50;;;;;;;21.66;34.84;100209.22;11324443;26;20006;-62
2024/04/14 14:30:08;;;;;;;4.10;1.60;;;;;;;21.80;34.33;100193.47;11325542;26;20006;-62
2024/04/14 14:40:32;;;;;;;3.80;1.80;;;;;;;21.69;34.71;100185.75;11319160;26;20021;-62
2024/04/14 14:45:34;;;;;;;4.22;1.30;;;;;;;21.86;34.60;100178.72;11322186;26;20020;-63
2024/04/14 14:50:37;;;;;;;3.80;1.83;;;;;;;22.05;34.24;100167.84;11317216;26;20008;-63
2024/04/14 14:55:40;;;;;;;4.13;1.70;;;;;;;22.07;34.05;100179.19;11319835;26;20002;-62
2024/04/14 15:00:42;;;;;;;3.97;1.50;;;;;;;22.01;34.52;100174.47;11320135;26;19998;-62
2024/04/14 15:05:45;;;;;;;2.45;1.25;;;;;;;22.06;34.61;100169.53;11322298;26;20337;-62
2024/04/14 15:10:50;;;;;;;4.07;2.00;;;;;;;22.00;34.32;100167.47;11315099;26;20179;-63
2024/04/14 15:15:57;;;;;;;6.53;2.38;;;;;;;22.00;34.25;100161.31;11325100;26;20091;-62
2024/04/14 15:21:00;;;;;;;3.92;1.80;;;;;;;21.42;34.96;100163.75;11322505;26;20432;-63
2024/04/14 15:26:03;;;;;;;1.95;1.40;;;;;;;21.16;34.56;100153.06;11327425;26;19998;-62
2024/04/14 15:31:06;;;;;;;3.47;1.45;;;;;;;21.21;34.83;100152.59;11322907;26;21021;-62
2024/04/14 15:36:09;;;;;;;5.00;1.73;;;;;;;21.08;34.95;100143.19;11327597;26;19998;-62
2024/04/14 15:41:15;;;;;;;3.33;1.60;;;;;;;20.85;35.16;100152.63;11322229;26;19998;-62
2024/04/14 15:46:22;;;;;;;5.10;2.47;;;;;;;20.69;35.16;100136.50;11315369;26;20002;-63
2024/04/14 15:51:25;;;;;;;5.43;2.00;;;;;;;20.70;35.21;100140.81;11315350;26;20684;-63
2024/04/14 15:56:30;;;;;;;5.90;1.70;;;;;;;20.87;34.84;100134.69;11311191;26;20013;-63
2024/04/14 16:01:33;;;;;;;6.88;2.63;;;;;;;20.74;34.87;100133.41;11312578;26;20002;-63
2024/04/14 16:06:35;;;;;;;3.88;1.70;;;;;;;20.55;35.10;100109.59;11316489;26;20013;-62
2024/04/14 16:11:38;;;;;;;5.43;1.80;;;;;;;20.14;35.56;100116.28;11310247;26;20029;-62
2024/04/14 16:16:41;;;;;;;5.07;1.90;;;;;;;19.79;35.81;100114.31;11315995;26;20307;-63
2024/04/14 16:21:44;;;;;;;3.08;1.60;;;;;;;19.51;36.21;100112.59;11312450;26;20482;-62
2024/04/14 16:26:47;;;;;;;7.10;1.88;;;;;;;19.67;36.21;100115.47;11318325;26;20006;-62
2024/04/14 16:31:50;;;;;;;4.35;1.50;;;;;;;19.78;36.04;100106.50;11318049;26;19998;-62
2024/04/14 16:36:53;;;;;;;6.18;1.63;;;;;;;19.80;35.96;100109.84;11314132;26;20459;-62
2024/04/14 16:41:56;;;;;;;1.92;1.20;;;;;;;19.61;36.18;100102.78;11311087;26;20002;-62
2024/04/14 16:47:00;;;;;;;2.40;1.42;;;;;;;19.60;36.39;100097.63;11314628;26;20002;-62
2024/04/14 16:52:04;;;;;;;2.53;1.40;;;;;;;19.35;36.44;100107.91;11316041;26;20349;-62
2024/04/14 16:57:07;;;;;;;3.10;1.88;;;;;;;19.14;36.46;100096.63;11313721;26;20030;-61
2024/04/14 17:02:10;;;;;;;8.45;1.73;;;;;;;18.92;36.65;100101.34;11343794;25;20021;-62
2024/04/14 17:07:12;;;;;;;2.17;1.27;;;;;;;18.85;36.84;100094.97;11315723;26;20087;-62
2024/04/14 17:12:15;;;;;;;2.95;1.38;;;;;;;18.89;36.73;100091.03;11313640;26;20006;-62
2024/04/14 17:17:18;;;;;;;6.43;2.03;;;;;;;18.66;37.05;100085.19;11313609;26;20074;-63
2024/04/14 17:22:21;;;;;;;4.40;1.88;;;;;;;18.45;37.21;100087.13;11317028;26;20002;-62
2024/04/14 17:27:23;;;;;;;4.90;1.83;;;;;;;18.15;37.31;100084.53;11315470;26;20020;-62
2024/04/14 17:32:26;;;;;;;2.53;1.30;;;;;;;17.96;37.30;100079.16;11308534;26;20347;-63
2024/04/14 17:37:29;;;;;;;3.20;1.42;;;;;;;17.87;37.70;100075.56;11314862;26;20034;-63
2024/04/14 17:42:32;;;;;;;6.13;1.70;;;;;;;17.78;37.97;100077.19;11318026;26;20100;-62
2024/04/14 17:47:34;;;;;;;1.92;1.20;;;;;;;17.70;38.78;100068.25;11315701;26;20458;-63
2024/04/14 17:52:38;;;;;;;3.22;1.70;;;;;;;17.66;39.02;100069.47;11309770;26;20009;-62
2024/04/14 17:57:41;;;;;;;4.88;1.50;;;;;;;17.45;39.26;100066.03;11315610;26;20346;-62
2024/04/14 18:02:44;;;;;;;3.95;1.30;;;;;;;17.29;39.81;100055.91;11321390;26;20006;-62
2024/04/14 18:07:46;;;;;;;3.55;1.38;;;;;;;17.20;39.74;100063.78;11321648;26;20053;-62
2024/04/14 18:12:51;;;;;;;2.92;1.60;;;;;;;17.06;40.02;100064.13;11321949;26;20002;-62
2024/04/14 18:17:53;;;;;;;5.18;1.60;;;;;;;16.97;40.10;100057.81;11321650;26;20322;-62
2024/04/14 18:22:57;;;;;;;4.93;1.55;;;;;;;16.98;40.19;100060.31;11294913;26;20478;-62
2024/04/14 18:28:05;;;;;;;3.95;1.80;;;;;;;17.03;40.49;100054.66;11329799;26;19998;-62
2024/04/14 18:33:09;;;;;;;2.75;1.40;;;;;;;16.91;40.70;100058.31;11298305;26;19998;-62
2024/04/14 18:38:13;;;;;;;4.43;1.60;;;;;;;16.86;41.01;100053.41;11323641;26;20464;-62
2024/04/14 18:43:16;;;;;;;4.80;1.70;;;;;;;16.69;41.02;100050.50;11326602;26;20438;-62
2024/04/14 18:48:18;;;;;;;2.97;1.55;;;;;;;16.67;41.67;100055.91;11329877;26;20335;-62
2024/04/14 18:53:21;;;;;;;3.63;1.70;;;;;;;16.69;41.44;100053.16;11320182;26;20022;-61
2024/04/14 18:58:25;;;;;;;4.82;1.67;;;;;;;16.74;42.03;100043.03;11320237;26;20002;-62
2024/04/14 19:03:32;;;;;;;4.13;1.80;;;;;;;16.64;42.36;100028.91;11317289;26;20388;-61
2024/04/14 19:08:36;;;;;;;3.30;1.80;;;;;;;16.46;42.70;100025.16;11318069;26;20347;-62
2024/04/14 19:13:39;;;;;;;4.65;2.20;;;;;;;16.19;42.69;100028.22;11315631;26;20658;-61
2024/04/14 19:18:42;;;;;;;4.38;2.00;;;;;;;15.90;42.94;100019.16;11317372;26;20344;-62
2024/04/14 19:23:45;;;;;;;3.00;1.65;;;;;;;15.76;43.68;100011.53;11314773;26;20002;-62
2024/04/14 19:28:48;;;;;;;4.78;2.00;;;;;;;15.82;43.90;100003.13;11321572;26;20032;-62
2024/04/14 19:33:51;;;;;;;6.32;1.70;;;;;;;15.76;44.35;100003.63;11318495;26;19998;-62
2024/04/14 19:38:54;;;;;;;3.00;1.60;;;;;;;15.78;44.71;99997.28;11317950;26;20002;-62
2024/04/14 19:43:57;;;;;;;5.40;2.00;;;;;;;15.58;44.58;100005.94;11315131;26;20021;-62
2024/04/14 19:49:00;;;;;;;6.40;2.58;;;;;;;15.20;45.36;100008.06;11312954;26;20009;-62
2024/04/14 19:54:02;;;;;;;4.18;1.67;;;;;;;15.32;45.21;99993.94;11317774;26;20009;-62
2024/04/14 19:59:06;;;;;;;3.83;1.65;;;;;;;15.34;45.69;99998.13;11312469;26;20586;-62
2024/04/14 20:04:09;;;;;;;4.97;2.47;;;;;;;15.36;46.08;99982.19;11320198;26;20002;-62
2024/04/14 20:09:14;;;;;;;4.57;1.70;;;;;;;15.33;45.94;99985.91;11318150;26;20050;-62
2024/04/14 20:14:18;;;;;;;2.53;1.42;;;;;;;15.22;46.42;99983.28;11317639;26;20021;-62
2024/04/14 20:19:22;;;;;;;3.60;1.73;;;;;;;15.11;46.79;99958.72;11314506;26;20416;-62
2024/04/14 20:24:25;;;;;;;4.00;1.90;;;;;;;15.11;46.96;99961.34;11320742;26;20074;-62
2024/04/14 20:29:29;;;;;;;3.33;1.75;;;;;;;15.04;46.92;99958.34;11319582;26;20013;-62
2024/04/14 20:34:32;;;;;;;2.88;1.48;;;;;;;14.94;47.18;99969.75;11320234;26;20458;-62
2024/04/14 20:39:37;;;;;;;3.53;1.52;;;;;;;14.84;47.50;99966.13;11318926;26;20457;-61
2024/04/14 20:44:41;;;;;;;2.80;1.85;;;;;;;14.84;47.46;99958.25;11317602;26;19998;-62
2024/04/14 20:49:48;;;;;;;3.53;1.60;;;;;;;14.77;47.56;99938.59;11319361;26;20431;-62
2024/04/14 20:54:51;;;;;;;3.05;1.95;;;;;;;14.77;47.55;99926.28;11318588;26;20458;-61
2024/04/14 20:59:55;;;;;;;5.85;2.10;;;;;;;14.72;47.82;99919.66;11319396;26;20017;-62
2024/04/14 21:05:00;;;;;;;4.55;2.28;;;;;;;14.73;48.21;99914.28;11318044;26;20607;-62
2024/04/14 21:10:04;;;;;;;4.72;1.52;;;;;;;14.73;48.24;99913.44;11315625;26;20002;-62
2024/04/14 21:15:09;;;;;;;2.78;1.30;;;;;;;14.74;48.11;99909.84;11315685;25;20021;-62
2024/04/14 21:20:12;;;;;;;5.70;1.95;;;;;;;14.71;48.14;99910.94;11313995;26;20358;-61
2024/04/14 21:25:15;;;;;;;5.50;1.80;;;;;;;14.66;48.38;99899.91;11312625;26;19998;-60
2024/04/14 21:30:18;;;;;;;4.05;1.83;;;;;;;14.55;48.85;99897.28;11311233;26;20047;-61
2024/04/14 21:35:21;;;;;;;2.75;1.65;;;;;;;14.57;48.97;99911.16;11315201;26;20022;-61
2024/04/14 21:40:24;;;;;;;4.22;2.10;;;;;;;14.50;49.25;99905.53;11315402;26;19994;-61
2024/04/14 21:45:26;;;;;;;3.75;1.80;;;;;;;14.47;49.25;99913.59;11317183;26;20447;-61
2024/04/14 21:50:30;;;;;;;3.75;2.10;;;;;;;14.40;49.15;99901.88;11311319;26;20002;-61
2024/04/14 21:55:33;;;;;;;3.47;1.73;;;;;;;14.39;49.49;99900.19;11316694;26;20036;-61
2024/04/14 22:00:35;;;;;;;3.03;1.80;;;;;;;14.45;49.19;99896.28;11292719;26;19998;-61
2024/04/14 22:05:38;;;;;;;2.90;1.90;;;;;;;14.46;49.53;99892.69;11323176;26;20021;-62
2024/04/14 22:10:40;;;;;;;3.28;1.52;;;;;;;14.40;49.42;99893.16;11323118;26;20158;-61
2024/04/14 22:15:43;;;;;;;3.63;2.10;;;;;;;14.34;50.07;99886.56;11321223;26;20002;-61
2024/04/14 22:20:46;;;;;;;3.83;1.73;;;;;;;14.44;49.79;99889.31;11321334;26;20017;-61
2024/04/14 22:25:49;;;;;;;4.63;1.70;;;;;;;14.37;49.61;99888.94;11323572;26;20013;-61
2024/04/14 22:30:52;;;;;;;4.78;1.80;;;;;;;14.30;50.06;99877.22;11322471;26;20098;-61
2024/04/14 22:35:54;;;;;;;3.90;1.75;;;;;;;14.23;50.52;99869.91;11322395;26;20544;-61
2024/04/14 22:40:57;;;;;;;3.97;2.03;;;;;;;14.26;50.37;99867.06;11316920;26;19998;-61
2024/04/14 22:45:59;;;;;;;4.47;1.63;;;;;;;14.30;50.36;99871.97;11322898;26;20007;-62
2024/04/14 22:51:02;;;;;;;3.55;1.77;;;;;;;14.39;50.21;99873.06;11321795;26;20442;-61
2024/04/14 22:56:05;;;;;;;3.17;1.83;;;;;;;14.31;50.34;99878.88;11233994;26;20013;-61
2024/04/14 23:01:08;;;;;;;3.33;1.73;;;;;;;14.39;50.10;99873.88;11321738;26;20432;-61
2024/04/14 23:06:12;;;;;;;3.08;1.77;;;;;;;14.40;50.46;99894.00;11322809;26;20797;-61
2024/04/14 23:11:14;;;;;;;3.97;1.70;;;;;;;14.43;50.22;99899.00;11321199;26;20447;-61
2024/04/14 23:16:17;;;;;;;2.85;1.60;;;;;;;14.48;50.17;99894.25;11320346;26;19998;-61
2024/04/14 23:21:20;;;;;;;4.10;1.90;;;;;;;14.38;50.27;99882.75;11318796;26;19998;-61